This is the latest recevied weather packets stored in our database for station/object MM9SQL. If no packets are shown the sender has not sent any weather packets the latest 10 day(s).
| Time | Temp. | Humidity | Pressure | Rain* | Wind** | Luminosity | Snow |
|---|---|---|---|---|---|---|---|
| 1777735205 | 9.44° C | 88% | 1014.9 hPa | 0 mm | - | - | - |
| 1777734924 | 9.44° C | 87% | 1014.8 hPa | 0 mm | - | - | - |
| 1777734606 | 9.44° C | 87% | 1014.7 hPa | 0 mm | - | - | - |
| 1777732809 | 10° C | 86% | 1015.1 hPa | 0 mm | - | - | - |
| 1777731308 | 10.56° C | 84% | 1015.1 hPa | 0 mm | - | - | - |
| 1777731006 | 10.56° C | 84% | 1015.1 hPa | 0 mm | - | - | - |
| 1777729806 | 10.56° C | 84% | 1015 hPa | 0 mm | - | - | - |
| 1777728622 | 11.11° C | 82% | 1014.7 hPa | 0 mm | - | - | - |
| 1777725602 | 11.67° C | 80% | 1014.3 hPa | 0 mm | - | - | - |
| 1777725010 | 11.67° C | 81% | 1014.5 hPa | 0 mm | - | - | - |
| 1777722902 | 11.67° C | 82% | 1014.3 hPa | 0 mm | - | - | - |
| 1777721404 | 11.11° C | 80% | 1014.4 hPa | 0 mm | - | - | - |
| 1777720803 | 11.11° C | 78% | 1014.4 hPa | 0 mm | - | - | - |
| 1777720509 | 11.67° C | 78% | 1014.3 hPa | 0 mm | - | - | - |
| 1777719003 | 12.22° C | 75% | 1014.2 hPa | 0 mm | - | - | - |
| 1777716303 | 11.67° C | 81% | 1013.8 hPa | 0 mm | - | - | - |
| 1777715102 | 11.67° C | 83% | 1013.7 hPa | 0 mm | - | - | - |
| 1777712703 | 10.56° C | 85% | 1013.8 hPa | 0 mm | - | - | - |
| 1777712406 | 10.56° C | 87% | 1013.7 hPa | 0 mm | - | - | - |
| 1777712106 | 10° C | 86% | 1013.7 hPa | 0 mm | - | - | - |
| 1777710003 | 10° C | 85% | 1013.7 hPa | 0 mm | - | - | - |
| 1777706403 | 10° C | 85% | 1013 hPa | 0 mm | - | - | - |
| 1777706104 | 9.44° C | 85% | 1013 hPa | 0 mm | - | - | - |
| 1777705504 | 9.44° C | 85% | 1013.1 hPa | 0 mm | - | - | - |
| 1777704604 | 9.44° C | 85% | 1013.1 hPa | 0 mm | - | - | - |
* Rain latest hour (hover to see other rain measurements)
** Current wind speed in m/s (hover to see current wind gust speed)